sensor_id;sensor_type;location;lat;lon;timestamp;temperature;humidity
36280;DHT22;22317;47.936;12.742;2023-04-15T00:00:49;3.20;65.40
36280;DHT22;22317;47.936;12.742;2023-04-15T00:03:16;3.20;65.50
36280;DHT22;22317;47.936;12.742;2023-04-15T00:05:43;3.30;65.60
36280;DHT22;22317;47.936;12.742;2023-04-15T00:08:09;3.30;65.60
36280;DHT22;22317;47.936;12.742;2023-04-15T00:10:35;3.30;65.60
36280;DHT22;22317;47.936;12.742;2023-04-15T00:13:00;3.50;65.70
36280;DHT22;22317;47.936;12.742;2023-04-15T00:15:27;3.50;65.60
36280;DHT22;22317;47.936;12.742;2023-04-15T00:17:53;3.40;65.40
36280;DHT22;22317;47.936;12.742;2023-04-15T00:20:18;3.50;65.40
36280;DHT22;22317;47.936;12.742;2023-04-15T00:22:44;3.40;65.30
36280;DHT22;22317;47.936;12.742;2023-04-15T00:25:10;3.50;65.40
36280;DHT22;22317;47.936;12.742;2023-04-15T00:27:36;3.50;65.30
36280;DHT22;22317;47.936;12.742;2023-04-15T00:30:03;3.60;65.30
36280;DHT22;22317;47.936;12.742;2023-04-15T00:32:29;3.50;65.30
36280;DHT22;22317;47.936;12.742;2023-04-15T00:34:55;3.50;65.20
36280;DHT22;22317;47.936;12.742;2023-04-15T00:37:22;3.50;65.10
36280;DHT22;22317;47.936;12.742;2023-04-15T00:39:48;3.40;65.10
36280;DHT22;22317;47.936;12.742;2023-04-15T00:42:14;3.40;65.10
36280;DHT22;22317;47.936;12.742;2023-04-15T00:44:40;3.40;65.20
36280;DHT22;22317;47.936;12.742;2023-04-15T00:47:07;3.40;65.30
36280;DHT22;22317;47.936;12.742;2023-04-15T00:49:33;3.40;65.20
36280;DHT22;22317;47.936;12.742;2023-04-15T00:52:00;3.50;65.30
36280;DHT22;22317;47.936;12.742;2023-04-15T00:54:26;3.50;65.20
36280;DHT22;22317;47.936;12.742;2023-04-15T00:56:52;3.50;65.10
36280;DHT22;22317;47.936;12.742;2023-04-15T00:59:18;3.40;65.00
36280;DHT22;22317;47.936;12.742;2023-04-15T01:01:45;3.50;65.20
36280;DHT22;22317;47.936;12.742;2023-04-15T01:04:12;3.50;65.00
36280;DHT22;22317;47.936;12.742;2023-04-15T01:06:38;3.40;65.00
36280;DHT22;22317;47.936;12.742;2023-04-15T01:09:03;3.40;65.20
36280;DHT22;22317;47.936;12.742;2023-04-15T01:11:31;3.40;65.00
36280;DHT22;22317;47.936;12.742;2023-04-15T01:14:00;3.40;65.10
36280;DHT22;22317;47.936;12.742;2023-04-15T01:16:26;3.40;65.10
36280;DHT22;22317;47.936;12.742;2023-04-15T01:18:53;3.50;65.00
36280;DHT22;22317;47.936;12.742;2023-04-15T01:21:19;3.60;65.20
36280;DHT22;22317;47.936;12.742;2023-04-15T01:23:46;3.50;65.00
36280;DHT22;22317;47.936;12.742;2023-04-15T01:26:13;3.50;65.00
36280;DHT22;22317;47.936;12.742;2023-04-15T01:28:38;3.50;64.90
36280;DHT22;22317;47.936;12.742;2023-04-15T01:31:08;3.50;64.80
36280;DHT22;22317;47.936;12.742;2023-04-15T01:33:39;3.50;64.90
36280;DHT22;22317;47.936;12.742;2023-04-15T01:36:06;3.60;64.90
36280;DHT22;22317;47.936;12.742;2023-04-15T01:38:33;3.50;64.80
36280;DHT22;22317;47.936;12.742;2023-04-15T01:40:59;3.60;64.90
36280;DHT22;22317;47.936;12.742;2023-04-15T01:43:25;3.60;64.70
36280;DHT22;22317;47.936;12.742;2023-04-15T01:45:51;3.60;64.80
36280;DHT22;22317;47.936;12.742;2023-04-15T01:48:17;3.60;64.70
36280;DHT22;22317;47.936;12.742;2023-04-15T01:50:44;3.60;64.70
36280;DHT22;22317;47.936;12.742;2023-04-15T01:53:10;3.80;64.80
36280;DHT22;22317;47.936;12.742;2023-04-15T01:55:36;3.70;64.80
36280;DHT22;22317;47.936;12.742;2023-04-15T01:58:02;3.70;64.80
36280;DHT22;22317;47.936;12.742;2023-04-15T02:00:28;3.70;64.60
36280;DHT22;22317;47.936;12.742;2023-04-15T02:02:54;3.70;64.50
36280;DHT22;22317;47.936;12.742;2023-04-15T02:05:20;3.70;64.40
36280;DHT22;22317;47.936;12.742;2023-04-15T02:07:47;3.70;64.50
36280;DHT22;22317;47.936;12.742;2023-04-15T02:10:13;3.80;64.50
36280;DHT22;22317;47.936;12.742;2023-04-15T02:12:38;3.80;64.60
36280;DHT22;22317;47.936;12.742;2023-04-15T02:15:05;3.80;64.60
36280;DHT22;22317;47.936;12.742;2023-04-15T02:17:35;3.70;64.40
36280;DHT22;22317;47.936;12.742;2023-04-15T02:20:02;3.70;64.40
36280;DHT22;22317;47.936;12.742;2023-04-15T02:22:30;3.70;64.40
36280;DHT22;22317;47.936;12.742;2023-04-15T02:24:56;3.70;64.60
36280;DHT22;22317;47.936;12.742;2023-04-15T02:27:22;3.70;64.60
36280;DHT22;22317;47.936;12.742;2023-04-15T02:29:49;3.70;64.60
36280;DHT22;22317;47.936;12.742;2023-04-15T02:32:16;3.70;64.70
36280;DHT22;22317;47.936;12.742;2023-04-15T02:34:41;3.70;64.50
36280;DHT22;22317;47.936;12.742;2023-04-15T02:37:10;3.70;64.50
36280;DHT22;22317;47.936;12.742;2023-04-15T02:39:36;3.70;64.60
36280;DHT22;22317;47.936;12.742;2023-04-15T02:42:02;3.70;64.60
36280;DHT22;22317;47.936;12.742;2023-04-15T02:44:29;3.70;64.60
36280;DHT22;22317;47.936;12.742;2023-04-15T02:46:58;3.70;64.60
36280;DHT22;22317;47.936;12.742;2023-04-15T02:49:24;3.80;64.70
36280;DHT22;22317;47.936;12.742;2023-04-15T02:51:51;3.70;64.70
36280;DHT22;22317;47.936;12.742;2023-04-15T02:54:18;3.70;64.80
36280;DHT22;22317;47.936;12.742;2023-04-15T02:56:44;3.70;64.90
36280;DHT22;22317;47.936;12.742;2023-04-15T02:59:11;3.70;65.00
36280;DHT22;22317;47.936;12.742;2023-04-15T03:01:37;3.70;64.90
36280;DHT22;22317;47.936;12.742;2023-04-15T03:04:03;3.70;64.70
36280;DHT22;22317;47.936;12.742;2023-04-15T03:06:29;3.70;64.70
36280;DHT22;22317;47.936;12.742;2023-04-15T03:08:55;3.90;64.90
36280;DHT22;22317;47.936;12.742;2023-04-15T03:11:21;3.70;64.90
36280;DHT22;22317;47.936;12.742;2023-04-15T03:13:47;3.70;65.00
36280;DHT22;22317;47.936;12.742;2023-04-15T03:16:39;3.70;65.00
36280;DHT22;22317;47.936;12.742;2023-04-15T03:19:05;3.60;64.70
36280;DHT22;22317;47.936;12.742;2023-04-15T03:21:32;3.60;64.80
36280;DHT22;22317;47.936;12.742;2023-04-15T03:23:58;3.60;64.90
36280;DHT22;22317;47.936;12.742;2023-04-15T03:26:29;3.60;65.00
36280;DHT22;22317;47.936;12.742;2023-04-15T03:28:59;3.60;64.90
36280;DHT22;22317;47.936;12.742;2023-04-15T03:31:25;3.60;64.80
36280;DHT22;22317;47.936;12.742;2023-04-15T03:33:50;3.50;65.00
36280;DHT22;22317;47.936;12.742;2023-04-15T03:36:16;3.50;65.00
36280;DHT22;22317;47.936;12.742;2023-04-15T03:38:42;3.50;65.00
36280;DHT22;22317;47.936;12.742;2023-04-15T03:41:08;3.50;65.10
36280;DHT22;22317;47.936;12.742;2023-04-15T03:43:34;3.60;65.30
36280;DHT22;22317;47.936;12.742;2023-04-15T03:46:00;3.60;65.30
36280;DHT22;22317;47.936;12.742;2023-04-15T03:48:26;3.60;65.10
36280;DHT22;22317;47.936;12.742;2023-04-15T03:50:52;3.50;65.00
36280;DHT22;22317;47.936;12.742;2023-04-15T03:53:17;3.50;65.10
36280;DHT22;22317;47.936;12.742;2023-04-15T03:55:43;3.50;65.20
36280;DHT22;22317;47.936;12.742;2023-04-15T03:58:09;3.60;65.20
36280;DHT22;22317;47.936;12.742;2023-04-15T04:00:38;3.50;65.10
36280;DHT22;22317;47.936;12.742;2023-04-15T04:03:03;3.50;65.10
36280;DHT22;22317;47.936;12.742;2023-04-15T04:05:29;3.50;65.20
36280;DHT22;22317;47.936;12.742;2023-04-15T04:07:55;3.60;65.20
36280;DHT22;22317;47.936;12.742;2023-04-15T04:10:21;3.50;65.40
36280;DHT22;22317;47.936;12.742;2023-04-15T04:12:46;3.50;65.30
36280;DHT22;22317;47.936;12.742;2023-04-15T04:15:12;3.50;65.30
36280;DHT22;22317;47.936;12.742;2023-04-15T04:17:38;3.50;65.40
36280;DHT22;22317;47.936;12.742;2023-04-15T04:20:04;3.50;65.40
36280;DHT22;22317;47.936;12.742;2023-04-15T04:22:30;3.50;65.30
36280;DHT22;22317;47.936;12.742;2023-04-15T04:24:56;3.50;65.30
36280;DHT22;22317;47.936;12.742;2023-04-15T04:27:24;3.50;65.30
36280;DHT22;22317;47.936;12.742;2023-04-15T04:29:50;3.50;65.30
36280;DHT22;22317;47.936;12.742;2023-04-15T04:32:16;3.50;65.40
36280;DHT22;22317;47.936;12.742;2023-04-15T04:34:42;3.50;65.30
36280;DHT22;22317;47.936;12.742;2023-04-15T04:37:07;3.50;65.20
36280;DHT22;22317;47.936;12.742;2023-04-15T04:39:33;3.50;65.30
36280;DHT22;22317;47.936;12.742;2023-04-15T04:41:59;3.50;65.20
36280;DHT22;22317;47.936;12.742;2023-04-15T04:44:25;3.50;65.30
36280;DHT22;22317;47.936;12.742;2023-04-15T04:46:51;3.50;65.30
36280;DHT22;22317;47.936;12.742;2023-04-15T04:49:17;3.50;65.30
36280;DHT22;22317;47.936;12.742;2023-04-15T04:51:43;3.50;65.40
36280;DHT22;22317;47.936;12.742;2023-04-15T04:54:08;3.60;65.50
36280;DHT22;22317;47.936;12.742;2023-04-15T04:56:34;3.60;65.40
36280;DHT22;22317;47.936;12.742;2023-04-15T04:59:00;3.60;65.30
36280;DHT22;22317;47.936;12.742;2023-04-15T05:01:26;3.60;65.30
36280;DHT22;22317;47.936;12.742;2023-04-15T05:03:52;3.60;65.40
36280;DHT22;22317;47.936;12.742;2023-04-15T05:06:18;3.60;65.40
36280;DHT22;22317;47.936;12.742;2023-04-15T05:08:43;3.60;65.20
36280;DHT22;22317;47.936;12.742;2023-04-15T05:11:11;3.60;65.10
36280;DHT22;22317;47.936;12.742;2023-04-15T05:13:37;3.60;65.20
36280;DHT22;22317;47.936;12.742;2023-04-15T05:16:06;3.60;65.20
36280;DHT22;22317;47.936;12.742;2023-04-15T05:18:32;3.70;65.30
36280;DHT22;22317;47.936;12.742;2023-04-15T05:20:58;3.60;65.20
36280;DHT22;22317;47.936;12.742;2023-04-15T05:23:24;3.70;65.20
36280;DHT22;22317;47.936;12.742;2023-04-15T05:25:50;3.70;65.20
36280;DHT22;22317;47.936;12.742;2023-04-15T05:28:16;3.70;65.10
36280;DHT22;22317;47.936;12.742;2023-04-15T05:30:41;3.70;64.90
36280;DHT22;22317;47.936;12.742;2023-04-15T05:33:07;3.70;64.90
36280;DHT22;22317;47.936;12.742;2023-04-15T05:35:33;3.60;64.80
36280;DHT22;22317;47.936;12.742;2023-04-15T05:37:59;3.60;64.90
36280;DHT22;22317;47.936;12.742;2023-04-15T05:40:25;3.60;65.00
36280;DHT22;22317;47.936;12.742;2023-04-15T05:42:51;3.60;65.20
36280;DHT22;22317;47.936;12.742;2023-04-15T05:45:16;3.60;65.10
36280;DHT22;22317;47.936;12.742;2023-04-15T05:47:42;3.60;65.10
36280;DHT22;22317;47.936;12.742;2023-04-15T05:50:08;3.60;65.10
36280;DHT22;22317;47.936;12.742;2023-04-15T05:52:34;3.60;65.00
36280;DHT22;22317;47.936;12.742;2023-04-15T05:55:00;3.60;65.00
36280;DHT22;22317;47.936;12.742;2023-04-15T05:57:26;3.70;64.90
36280;DHT22;22317;47.936;12.742;2023-04-15T05:59:51;3.60;64.90
36280;DHT22;22317;47.936;12.742;2023-04-15T06:02:18;3.60;64.90
36280;DHT22;22317;47.936;12.742;2023-04-15T06:04:43;3.60;64.90
36280;DHT22;22317;47.936;12.742;2023-04-15T06:07:09;3.60;64.80
36280;DHT22;22317;47.936;12.742;2023-04-15T06:09:35;3.70;64.90
36280;DHT22;22317;47.936;12.742;2023-04-15T06:12:01;3.60;65.00
36280;DHT22;22317;47.936;12.742;2023-04-15T06:14:27;3.60;64.90
36280;DHT22;22317;47.936;12.742;2023-04-15T06:16:53;3.60;64.90
36280;DHT22;22317;47.936;12.742;2023-04-15T06:19:19;3.70;64.90
36280;DHT22;22317;47.936;12.742;2023-04-15T06:21:46;3.70;64.90
36280;DHT22;22317;47.936;12.742;2023-04-15T06:24:12;3.70;65.00
36280;DHT22;22317;47.936;12.742;2023-04-15T06:26:37;3.80;65.10
36280;DHT22;22317;47.936;12.742;2023-04-15T06:29:03;3.80;65.10
36280;DHT22;22317;47.936;12.742;2023-04-15T06:31:29;3.90;65.10
36280;DHT22;22317;47.936;12.742;2023-04-15T06:33:55;4.00;65.00
36280;DHT22;22317;47.936;12.742;2023-04-15T06:36:21;4.00;65.10
36280;DHT22;22317;47.936;12.742;2023-04-15T06:38:46;4.00;64.60
36280;DHT22;22317;47.936;12.742;2023-04-15T06:41:12;4.10;64.70
36280;DHT22;22317;47.936;12.742;2023-04-15T06:43:38;3.90;64.50
36280;DHT22;22317;47.936;12.742;2023-04-15T06:46:04;4.10;64.50
36280;DHT22;22317;47.936;12.742;2023-04-15T06:48:30;4.10;64.40
36280;DHT22;22317;47.936;12.742;2023-04-15T06:50:56;4.10;64.30
36280;DHT22;22317;47.936;12.742;2023-04-15T06:53:24;4.20;64.40
36280;DHT22;22317;47.936;12.742;2023-04-15T06:55:51;4.10;64.40
36280;DHT22;22317;47.936;12.742;2023-04-15T06:58:17;4.20;64.50
36280;DHT22;22317;47.936;12.742;2023-04-15T07:00:43;4.20;65.60
36280;DHT22;22317;47.936;12.742;2023-04-15T07:03:11;4.20;64.30
36280;DHT22;22317;47.936;12.742;2023-04-15T07:05:37;4.20;64.30
36280;DHT22;22317;47.936;12.742;2023-04-15T07:08:04;4.20;64.20
36280;DHT22;22317;47.936;12.742;2023-04-15T07:10:30;6.40;65.80
36280;DHT22;22317;47.936;12.742;2023-04-15T07:12:56;4.30;64.40
36280;DHT22;22317;47.936;12.742;2023-04-15T07:15:22;4.30;64.10
36280;DHT22;22317;47.936;12.742;2023-04-15T07:17:48;4.30;63.70
36280;DHT22;22317;47.936;12.742;2023-04-15T07:20:13;4.20;63.90
36280;DHT22;22317;47.936;12.742;2023-04-15T07:22:39;4.20;64.00
36280;DHT22;22317;47.936;12.742;2023-04-15T07:25:06;4.10;64.10
36280;DHT22;22317;47.936;12.742;2023-04-15T07:27:32;4.10;64.20
36280;DHT22;22317;47.936;12.742;2023-04-15T07:29:58;4.10;64.10
36280;DHT22;22317;47.936;12.742;2023-04-15T07:32:23;4.10;64.10
36280;DHT22;22317;47.936;12.742;2023-04-15T07:34:49;4.00;64.10
36280;DHT22;22317;47.936;12.742;2023-04-15T07:37:15;4.00;64.10
36280;DHT22;22317;47.936;12.742;2023-04-15T07:39:41;4.00;64.20
36280;DHT22;22317;47.936;12.742;2023-04-15T07:42:07;4.00;65.20
36280;DHT22;22317;47.936;12.742;2023-04-15T07:44:33;4.00;64.70
36280;DHT22;22317;47.936;12.742;2023-04-15T07:46:58;4.10;64.80
36280;DHT22;22317;47.936;12.742;2023-04-15T07:49:24;4.10;64.70
36280;DHT22;22317;47.936;12.742;2023-04-15T07:51:50;4.10;64.60
36280;DHT22;22317;47.936;12.742;2023-04-15T07:54:16;4.10;64.40
36280;DHT22;22317;47.936;12.742;2023-04-15T07:56:42;4.10;64.40
36280;DHT22;22317;47.936;12.742;2023-04-15T07:59:08;4.10;64.30
36280;DHT22;22317;47.936;12.742;2023-04-15T08:01:35;4.10;64.50
36280;DHT22;22317;47.936;12.742;2023-04-15T08:04:01;4.10;64.70
36280;DHT22;22317;47.936;12.742;2023-04-15T08:06:27;4.20;64.80
36280;DHT22;22317;47.936;12.742;2023-04-15T08:08:53;4.20;64.70
36280;DHT22;22317;47.936;12.742;2023-04-15T08:11:20;4.20;65.50
36280;DHT22;22317;47.936;12.742;2023-04-15T08:13:46;4.30;64.80
36280;DHT22;22317;47.936;12.742;2023-04-15T08:18:46;4.30;64.50
36280;DHT22;22317;47.936;12.742;2023-04-15T08:21:12;4.30;64.60
36280;DHT22;22317;47.936;12.742;2023-04-15T08:23:38;4.30;64.60
36280;DHT22;22317;47.936;12.742;2023-04-15T08:26:04;4.40;64.70
36280;DHT22;22317;47.936;12.742;2023-04-15T08:28:30;4.40;64.60
36280;DHT22;22317;47.936;12.742;2023-04-15T08:30:56;4.40;64.50
36280;DHT22;22317;47.936;12.742;2023-04-15T08:33:22;4.40;64.60
36280;DHT22;22317;47.936;12.742;2023-04-15T08:35:48;4.40;64.50
36280;DHT22;22317;47.936;12.742;2023-04-15T08:38:14;4.40;64.50
36280;DHT22;22317;47.936;12.742;2023-04-15T08:40:46;4.50;64.60
36280;DHT22;22317;47.936;12.742;2023-04-15T08:43:17;4.50;64.50
36280;DHT22;22317;47.936;12.742;2023-04-15T08:45:44;4.50;64.60
36280;DHT22;22317;47.936;12.742;2023-04-15T08:48:14;4.60;64.70
36280;DHT22;22317;47.936;12.742;2023-04-15T08:50:41;4.60;64.60
36280;DHT22;22317;47.936;12.742;2023-04-15T08:53:09;4.60;64.40
36280;DHT22;22317;47.936;12.742;2023-04-15T08:55:41;4.60;64.40
36280;DHT22;22317;47.936;12.742;2023-04-15T08:58:09;4.60;64.30
36280;DHT22;22317;47.936;12.742;2023-04-15T09:00:36;4.70;64.30
36280;DHT22;22317;47.936;12.742;2023-04-15T09:03:04;4.70;64.40
36280;DHT22;22317;47.936;12.742;2023-04-15T09:05:37;4.70;64.40
36280;DHT22;22317;47.936;12.742;2023-04-15T09:08:04;4.80;64.30
36280;DHT22;22317;47.936;12.742;2023-04-15T09:10:31;4.80;64.20
36280;DHT22;22317;47.936;12.742;2023-04-15T09:12:57;4.80;64.20
36280;DHT22;22317;47.936;12.742;2023-04-15T09:15:27;4.90;64.30
36280;DHT22;22317;47.936;12.742;2023-04-15T09:17:54;4.90;64.00
36280;DHT22;22317;47.936;12.742;2023-04-15T09:20:21;5.00;64.00
36280;DHT22;22317;47.936;12.742;2023-04-15T09:22:48;4.90;63.90
36280;DHT22;22317;47.936;12.742;2023-04-15T09:28:07;4.90;63.50
36280;DHT22;22317;47.936;12.742;2023-04-15T09:30:33;4.80;63.50
36280;DHT22;22317;47.936;12.742;2023-04-15T09:33:01;4.80;63.60
36280;DHT22;22317;47.936;12.742;2023-04-15T09:35:27;4.80;63.90
36280;DHT22;22317;47.936;12.742;2023-04-15T09:38:03;4.80;63.60
36280;DHT22;22317;47.936;12.742;2023-04-15T09:40:35;4.80;63.20
36280;DHT22;22317;47.936;12.742;2023-04-15T09:43:06;4.70;63.40
36280;DHT22;22317;47.936;12.742;2023-04-15T09:45:33;4.70;63.50
36280;DHT22;22317;47.936;12.742;2023-04-15T09:48:17;4.70;63.50
36280;DHT22;22317;47.936;12.742;2023-04-15T09:50:45;4.70;63.40
36280;DHT22;22317;47.936;12.742;2023-04-15T09:53:15;4.70;63.50
36280;DHT22;22317;47.936;12.742;2023-04-15T09:56:01;4.80;63.90
36280;DHT22;22317;47.936;12.742;2023-04-15T09:58:31;4.90;63.90
36280;DHT22;22317;47.936;12.742;2023-04-15T10:00:59;5.00;64.00
36280;DHT22;22317;47.936;12.742;2023-04-15T10:03:28;5.10;63.90
36280;DHT22;22317;47.936;12.742;2023-04-15T10:05:56;5.20;63.60
36280;DHT22;22317;47.936;12.742;2023-04-15T10:08:23;5.20;63.20
36280;DHT22;22317;47.936;12.742;2023-04-15T10:10:50;5.20;63.20
36280;DHT22;22317;47.936;12.742;2023-04-15T10:13:20;5.20;63.20
36280;DHT22;22317;47.936;12.742;2023-04-15T10:18:31;5.40;63.30
36280;DHT22;22317;47.936;12.742;2023-04-15T10:21:00;5.40;63.10
36280;DHT22;22317;47.936;12.742;2023-04-15T10:23:26;5.30;62.70
36280;DHT22;22317;47.936;12.742;2023-04-15T10:25:53;5.30;62.70
36280;DHT22;22317;47.936;12.742;2023-04-15T10:28:19;5.30;62.80
36280;DHT22;22317;47.936;12.742;2023-04-15T10:30:47;5.30;62.70
36280;DHT22;22317;47.936;12.742;2023-04-15T10:33:16;5.30;62.60
36280;DHT22;22317;47.936;12.742;2023-04-15T10:35:43;5.20;62.40
36280;DHT22;22317;47.936;12.742;2023-04-15T10:38:33;5.30;62.60
36280;DHT22;22317;47.936;12.742;2023-04-15T10:41:19;5.20;62.60
36280;DHT22;22317;47.936;12.742;2023-04-15T10:49:12;5.20;62.80
36280;DHT22;22317;47.936;12.742;2023-04-15T10:51:40;5.20;62.70
36280;DHT22;22317;47.936;12.742;2023-04-15T10:54:12;5.20;62.60
36280;DHT22;22317;47.936;12.742;2023-04-15T10:56:43;5.20;62.60
36280;DHT22;22317;47.936;12.742;2023-04-15T10:59:09;5.20;62.70
36280;DHT22;22317;47.936;12.742;2023-04-15T11:04:53;5.30;62.80
36280;DHT22;22317;47.936;12.742;2023-04-15T11:12:44;5.60;62.60
36280;DHT22;22317;47.936;12.742;2023-04-15T11:17:55;5.70;62.00
36280;DHT22;22317;47.936;12.742;2023-04-15T11:20:22;5.80;62.20
36280;DHT22;22317;47.936;12.742;2023-04-15T11:22:52;5.80;62.30
36280;DHT22;22317;47.936;12.742;2023-04-15T11:25:26;5.90;62.40
36280;DHT22;22317;47.936;12.742;2023-04-15T11:27:53;6.00;62.40
36280;DHT22;22317;47.936;12.742;2023-04-15T11:30:21;6.10;62.20
36280;DHT22;22317;47.936;12.742;2023-04-15T11:32:51;6.10;62.00
36280;DHT22;22317;47.936;12.742;2023-04-15T11:35:17;6.20;61.90
36280;DHT22;22317;47.936;12.742;2023-04-15T11:37:44;6.20;61.60
36280;DHT22;22317;47.936;12.742;2023-04-15T11:40:11;6.20;61.50
36280;DHT22;22317;47.936;12.742;2023-04-15T11:42:38;6.30;61.30
36280;DHT22;22317;47.936;12.742;2023-04-15T11:45:10;6.30;61.20
36280;DHT22;22317;47.936;12.742;2023-04-15T11:47:37;6.20;60.90
36280;DHT22;22317;47.936;12.742;2023-04-15T11:52:39;6.10;60.70
36280;DHT22;22317;47.936;12.742;2023-04-15T11:55:06;6.10;60.70
36280;DHT22;22317;47.936;12.742;2023-04-15T11:57:34;6.00;60.60
36280;DHT22;22317;47.936;12.742;2023-04-15T12:00:00;5.90;60.60
36280;DHT22;22317;47.936;12.742;2023-04-15T12:02:35;5.90;60.80
36280;DHT22;22317;47.936;12.742;2023-04-15T12:05:05;5.90;60.90
36280;DHT22;22317;47.936;12.742;2023-04-15T12:07:31;6.00;61.20
36280;DHT22;22317;47.936;12.742;2023-04-15T12:09:57;6.00;61.10
36280;DHT22;22317;47.936;12.742;2023-04-15T12:12:27;6.10;61.10
36280;DHT22;22317;47.936;12.742;2023-04-15T12:14:55;6.10;60.80
36280;DHT22;22317;47.936;12.742;2023-04-15T12:17:22;6.10;60.60
36280;DHT22;22317;47.936;12.742;2023-04-15T12:19:54;6.00;60.40
36280;DHT22;22317;47.936;12.742;2023-04-15T12:22:20;5.90;60.30
36280;DHT22;22317;47.936;12.742;2023-04-15T12:24:46;5.80;60.40
36280;DHT22;22317;47.936;12.742;2023-04-15T12:27:14;5.80;60.60
36280;DHT22;22317;47.936;12.742;2023-04-15T12:29:41;5.80;60.70
36280;DHT22;22317;47.936;12.742;2023-04-15T12:32:09;5.70;60.80
36280;DHT22;22317;47.936;12.742;2023-04-15T12:34:37;5.70;61.00
36280;DHT22;22317;47.936;12.742;2023-04-15T12:37:05;5.70;61.10
36280;DHT22;22317;47.936;12.742;2023-04-15T12:39:34;5.70;61.20
36280;DHT22;22317;47.936;12.742;2023-04-15T12:42:01;5.70;61.40
36280;DHT22;22317;47.936;12.742;2023-04-15T12:44:27;5.70;61.50
36280;DHT22;22317;47.936;12.742;2023-04-15T12:46:54;5.80;61.60
36280;DHT22;22317;47.936;12.742;2023-04-15T12:49:21;5.80;61.70
36280;DHT22;22317;47.936;12.742;2023-04-15T12:51:52;5.90;61.70
36280;DHT22;22317;47.936;12.742;2023-04-15T12:54:18;5.90;61.80
36280;DHT22;22317;47.936;12.742;2023-04-15T12:56:45;5.90;61.60
36280;DHT22;22317;47.936;12.742;2023-04-15T12:59:13;5.90;61.50
36280;DHT22;22317;47.936;12.742;2023-04-15T13:01:39;5.90;61.50
36280;DHT22;22317;47.936;12.742;2023-04-15T13:04:05;5.90;61.30
36280;DHT22;22317;47.936;12.742;2023-04-15T13:06:30;5.90;62.10
36280;DHT22;22317;47.936;12.742;2023-04-15T13:09:00;5.90;61.30
36280;DHT22;22317;47.936;12.742;2023-04-15T13:11:27;5.90;61.20
36280;DHT22;22317;47.936;12.742;2023-04-15T13:13:56;5.80;61.30
36280;DHT22;22317;47.936;12.742;2023-04-15T13:16:22;5.80;61.20
36280;DHT22;22317;47.936;12.742;2023-04-15T13:18:49;5.90;61.20
36280;DHT22;22317;47.936;12.742;2023-04-15T13:21:15;5.70;61.10
36280;DHT22;22317;47.936;12.742;2023-04-15T13:23:41;5.90;61.30
36280;DHT22;22317;47.936;12.742;2023-04-15T13:26:07;5.90;61.30
36280;DHT22;22317;47.936;12.742;2023-04-15T13:28:33;5.90;61.30
36280;DHT22;22317;47.936;12.742;2023-04-15T13:30:59;5.90;61.20
36280;DHT22;22317;47.936;12.742;2023-04-15T13:33:27;6.00;61.30
36280;DHT22;22317;47.936;12.742;2023-04-15T13:35:52;6.00;61.30
36280;DHT22;22317;47.936;12.742;2023-04-15T13:38:18;6.00;61.20
36280;DHT22;22317;47.936;12.742;2023-04-15T13:40:44;6.00;61.30
36280;DHT22;22317;47.936;12.742;2023-04-15T13:43:11;6.10;61.40
36280;DHT22;22317;47.936;12.742;2023-04-15T13:45:37;6.10;61.30
36280;DHT22;22317;47.936;12.742;2023-04-15T13:48:03;6.10;61.40
36280;DHT22;22317;47.936;12.742;2023-04-15T13:50:29;6.20;61.40
36280;DHT22;22317;47.936;12.742;2023-04-15T13:52:55;6.20;62.20
36280;DHT22;22317;47.936;12.742;2023-04-15T13:55:20;6.30;61.60
36280;DHT22;22317;47.936;12.742;2023-04-15T13:57:46;6.40;61.70
36280;DHT22;22317;47.936;12.742;2023-04-15T14:00:12;6.40;61.70
36280;DHT22;22317;47.936;12.742;2023-04-15T14:02:39;6.40;61.60
36280;DHT22;22317;47.936;12.742;2023-04-15T14:05:06;6.40;61.40
36280;DHT22;22317;47.936;12.742;2023-04-15T14:07:32;6.40;61.40
36280;DHT22;22317;47.936;12.742;2023-04-15T14:09:58;6.40;61.40
36280;DHT22;22317;47.936;12.742;2023-04-15T14:12:24;4.80;60.60
36280;DHT22;22317;47.936;12.742;2023-04-15T14:14:50;6.50;61.70
36280;DHT22;22317;47.936;12.742;2023-04-15T14:17:15;6.50;61.60
36280;DHT22;22317;47.936;12.742;2023-04-15T14:19:41;6.40;61.70
36280;DHT22;22317;47.936;12.742;2023-04-15T14:22:07;6.50;61.70
36280;DHT22;22317;47.936;12.742;2023-04-15T14:24:32;6.50;61.60
36280;DHT22;22317;47.936;12.742;2023-04-15T14:26:58;6.40;61.60
36280;DHT22;22317;47.936;12.742;2023-04-15T14:29:24;6.40;61.40
36280;DHT22;22317;47.936;12.742;2023-04-15T14:31:50;6.30;61.50
36280;DHT22;22317;47.936;12.742;2023-04-15T14:34:16;6.30;61.20
36280;DHT22;22317;47.936;12.742;2023-04-15T14:36:42;6.20;61.20
36280;DHT22;22317;47.936;12.742;2023-04-15T14:39:10;6.20;61.30
36280;DHT22;22317;47.936;12.742;2023-04-15T14:41:36;6.10;61.20
36280;DHT22;22317;47.936;12.742;2023-04-15T14:44:02;6.10;61.30
36280;DHT22;22317;47.936;12.742;2023-04-15T14:46:28;6.10;61.20
36280;DHT22;22317;47.936;12.742;2023-04-15T14:48:53;6.00;61.00
36280;DHT22;22317;47.936;12.742;2023-04-15T14:51:21;6.00;61.00
36280;DHT22;22317;47.936;12.742;2023-04-15T14:53:47;5.90;61.10
36280;DHT22;22317;47.936;12.742;2023-04-15T14:56:13;5.90;61.30
36280;DHT22;22317;47.936;12.742;2023-04-15T14:58:38;5.90;61.40
36280;DHT22;22317;47.936;12.742;2023-04-15T15:01:04;5.90;61.50
36280;DHT22;22317;47.936;12.742;2023-04-15T15:03:30;5.80;61.40
36280;DHT22;22317;47.936;12.742;2023-04-15T15:05:56;5.80;61.40
36280;DHT22;22317;47.936;12.742;2023-04-15T15:08:22;5.80;61.50
36280;DHT22;22317;47.936;12.742;2023-04-15T15:10:48;5.70;61.50
36280;DHT22;22317;47.936;12.742;2023-04-15T15:13:14;5.70;61.60
36280;DHT22;22317;47.936;12.742;2023-04-15T15:15:40;5.70;61.80
36280;DHT22;22317;47.936;12.742;2023-04-15T15:18:06;5.70;61.90
36280;DHT22;22317;47.936;12.742;2023-04-15T15:20:32;5.60;61.70
36280;DHT22;22317;47.936;12.742;2023-04-15T15:22:59;5.60;61.90
36280;DHT22;22317;47.936;12.742;2023-04-15T15:25:25;5.60;62.00
36280;DHT22;22317;47.936;12.742;2023-04-15T15:27:51;5.50;62.10
36280;DHT22;22317;47.936;12.742;2023-04-15T15:30:17;5.50;62.20
36280;DHT22;22317;47.936;12.742;2023-04-15T15:32:43;5.60;62.30
36280;DHT22;22317;47.936;12.742;2023-04-15T15:35:09;5.60;62.40
36280;DHT22;22317;47.936;12.742;2023-04-15T15:37:36;5.50;62.10
36280;DHT22;22317;47.936;12.742;2023-04-15T15:40:05;5.50;62.10
36280;DHT22;22317;47.936;12.742;2023-04-15T15:42:32;5.50;62.20
36280;DHT22;22317;47.936;12.742;2023-04-15T15:44:58;5.40;62.30
36280;DHT22;22317;47.936;12.742;2023-04-15T15:47:24;5.50;62.50
36280;DHT22;22317;47.936;12.742;2023-04-15T15:49:53;5.50;62.50
36280;DHT22;22317;47.936;12.742;2023-04-15T15:52:20;5.50;62.40
36280;DHT22;22317;47.936;12.742;2023-04-15T15:54:46;5.50;62.50